sensor_id;sensor_type;location;lat;lon;timestamp;P1;durP1;ratioP1;P2;durP2;ratioP2
56511;SDS011;42408;53.238;5.686;2024-02-14T00:01:05;11.10;;;8.25;;
56511;SDS011;42408;53.238;5.686;2024-02-14T00:03:34;11.48;;;8.23;;
56511;SDS011;42408;53.238;5.686;2024-02-14T00:05:59;13.10;;;8.57;;
56511;SDS011;42408;53.238;5.686;2024-02-14T00:08:25;12.43;;;8.73;;
56511;SDS011;42408;53.238;5.686;2024-02-14T00:10:51;10.40;;;8.40;;
56511;SDS011;42408;53.238;5.686;2024-02-14T00:13:16;13.63;;;8.93;;
56511;SDS011;42408;53.238;5.686;2024-02-14T00:15:45;10.63;;;8.15;;
56511;SDS011;42408;53.238;5.686;2024-02-14T00:18:13;14.50;;;9.30;;
56511;SDS011;42408;53.238;5.686;2024-02-14T00:23:06;10.43;;;8.60;;
56511;SDS011;42408;53.238;5.686;2024-02-14T00:25:31;11.27;;;8.63;;
56511;SDS011;42408;53.238;5.686;2024-02-14T00:27:57;10.83;;;8.60;;
56511;SDS011;42408;53.238;5.686;2024-02-14T00:30:26;9.98;;;8.48;;
56511;SDS011;42408;53.238;5.686;2024-02-14T00:32:51;10.65;;;9.02;;
56511;SDS011;42408;53.238;5.686;2024-02-14T00:35:17;10.07;;;8.30;;
56511;SDS011;42408;53.238;5.686;2024-02-14T00:37:43;10.60;;;9.17;;
56511;SDS011;42408;53.238;5.686;2024-02-14T00:40:08;10.33;;;8.90;;
56511;SDS011;42408;53.238;5.686;2024-02-14T00:42:35;11.02;;;8.57;;
56511;SDS011;42408;53.238;5.686;2024-02-14T00:45:01;12.67;;;9.30;;
56511;SDS011;42408;53.238;5.686;2024-02-14T00:47:28;13.13;;;9.38;;
56511;SDS011;42408;53.238;5.686;2024-02-14T00:49:53;12.53;;;9.17;;
56511;SDS011;42408;53.238;5.686;2024-02-14T00:52:19;10.93;;;8.87;;
56511;SDS011;42408;53.238;5.686;2024-02-14T00:54:46;12.02;;;9.00;;
56511;SDS011;42408;53.238;5.686;2024-02-14T00:57:12;11.43;;;9.73;;
56511;SDS011;42408;53.238;5.686;2024-02-14T00:59:38;10.77;;;9.47;;
56511;SDS011;42408;53.238;5.686;2024-02-14T01:02:04;11.67;;;9.20;;
56511;SDS011;42408;53.238;5.686;2024-02-14T01:04:29;11.03;;;9.23;;
56511;SDS011;42408;53.238;5.686;2024-02-14T01:06:55;10.83;;;9.20;;
56511;SDS011;42408;53.238;5.686;2024-02-14T01:09:21;13.57;;;9.20;;
56511;SDS011;42408;53.238;5.686;2024-02-14T01:11:47;12.47;;;9.67;;
56511;SDS011;42408;53.238;5.686;2024-02-14T01:14:13;11.85;;;8.70;;
56511;SDS011;42408;53.238;5.686;2024-02-14T01:16:43;11.20;;;8.25;;
56511;SDS011;42408;53.238;5.686;2024-02-14T01:19:09;10.02;;;8.02;;
56511;SDS011;42408;53.238;5.686;2024-02-14T01:21:35;12.82;;;9.70;;
56511;SDS011;42408;53.238;5.686;2024-02-14T01:24:01;11.30;;;8.63;;
56511;SDS011;42408;53.238;5.686;2024-02-14T01:26:26;11.60;;;9.30;;
56511;SDS011;42408;53.238;5.686;2024-02-14T01:28:52;9.97;;;8.37;;
56511;SDS011;42408;53.238;5.686;2024-02-14T01:31:17;10.80;;;9.00;;
56511;SDS011;42408;53.238;5.686;2024-02-14T01:33:45;11.23;;;9.20;;
56511;SDS011;42408;53.238;5.686;2024-02-14T01:36:11;12.82;;;10.00;;
56511;SDS011;42408;53.238;5.686;2024-02-14T01:38:36;11.93;;;9.50;;
56511;SDS011;42408;53.238;5.686;2024-02-14T01:41:02;14.30;;;10.97;;
56511;SDS011;42408;53.238;5.686;2024-02-14T01:43:29;12.23;;;10.10;;
56511;SDS011;42408;53.238;5.686;2024-02-14T01:45:55;12.18;;;9.98;;
56511;SDS011;42408;53.238;5.686;2024-02-14T01:48:29;11.88;;;9.27;;
56511;SDS011;42408;53.238;5.686;2024-02-14T01:50:55;12.73;;;10.27;;
56511;SDS011;42408;53.238;5.686;2024-02-14T01:53:21;13.53;;;11.30;;
56511;SDS011;42408;53.238;5.686;2024-02-14T01:55:46;13.27;;;10.53;;
56511;SDS011;42408;53.238;5.686;2024-02-14T01:58:12;13.33;;;10.87;;
56511;SDS011;42408;53.238;5.686;2024-02-14T02:00:39;11.50;;;10.05;;
56511;SDS011;42408;53.238;5.686;2024-02-14T02:03:04;15.03;;;12.47;;
56511;SDS011;42408;53.238;5.686;2024-02-14T02:05:30;12.50;;;11.20;;
56511;SDS011;42408;53.238;5.686;2024-02-14T02:07:56;14.80;;;11.00;;
56511;SDS011;42408;53.238;5.686;2024-02-14T02:10:22;14.40;;;12.40;;
56511;SDS011;42408;53.238;5.686;2024-02-14T02:12:50;13.43;;;11.05;;
56511;SDS011;42408;53.238;5.686;2024-02-14T02:15:16;14.77;;;11.63;;
56511;SDS011;42408;53.238;5.686;2024-02-14T02:17:42;12.60;;;10.68;;
56511;SDS011;42408;53.238;5.686;2024-02-14T02:20:10;14.88;;;12.13;;
56511;SDS011;42408;53.238;5.686;2024-02-14T02:22:36;14.00;;;11.43;;
56511;SDS011;42408;53.238;5.686;2024-02-14T02:25:05;16.00;;;11.70;;
56511;SDS011;42408;53.238;5.686;2024-02-14T02:27:32;14.88;;;11.40;;
56511;SDS011;42408;53.238;5.686;2024-02-14T02:30:03;12.90;;;10.45;;
56511;SDS011;42408;53.238;5.686;2024-02-14T02:32:33;14.35;;;11.10;;
56511;SDS011;42408;53.238;5.686;2024-02-14T02:34:59;13.43;;;10.43;;
56511;SDS011;42408;53.238;5.686;2024-02-14T02:37:26;14.05;;;11.30;;
56511;SDS011;42408;53.238;5.686;2024-02-14T02:39:54;13.65;;;11.00;;
56511;SDS011;42408;53.238;5.686;2024-02-14T02:44:48;12.23;;;9.75;;
56511;SDS011;42408;53.238;5.686;2024-02-14T02:47:17;12.88;;;9.80;;
56511;SDS011;42408;53.238;5.686;2024-02-14T02:49:43;13.60;;;10.57;;
56511;SDS011;42408;53.238;5.686;2024-02-14T02:52:12;11.93;;;8.90;;
56511;SDS011;42408;53.238;5.686;2024-02-14T02:54:38;11.80;;;9.65;;
56511;SDS011;42408;53.238;5.686;2024-02-14T02:57:08;12.82;;;9.70;;
56511;SDS011;42408;53.238;5.686;2024-02-14T02:59:37;12.02;;;8.98;;
56511;SDS011;42408;53.238;5.686;2024-02-14T03:02:04;10.75;;;8.45;;
56511;SDS011;42408;53.238;5.686;2024-02-14T03:04:33;10.48;;;7.70;;
56511;SDS011;42408;53.238;5.686;2024-02-14T03:06:59;9.47;;;7.20;;
56511;SDS011;42408;53.238;5.686;2024-02-14T03:09:24;9.60;;;7.10;;
56511;SDS011;42408;53.238;5.686;2024-02-14T03:11:51;9.30;;;7.05;;
56511;SDS011;42408;53.238;5.686;2024-02-14T03:14:17;9.90;;;7.17;;
56511;SDS011;42408;53.238;5.686;2024-02-14T03:16:42;9.77;;;7.20;;
56511;SDS011;42408;53.238;5.686;2024-02-14T03:19:08;9.87;;;6.43;;
56511;SDS011;42408;53.238;5.686;2024-02-14T03:21:33;10.40;;;6.20;;
56511;SDS011;42408;53.238;5.686;2024-02-14T03:24:01;11.27;;;6.18;;
56511;SDS011;42408;53.238;5.686;2024-02-14T03:26:30;11.10;;;6.32;;
56511;SDS011;42408;53.238;5.686;2024-02-14T03:28:58;10.25;;;6.30;;
56511;SDS011;42408;53.238;5.686;2024-02-14T03:31:30;10.63;;;6.43;;
56511;SDS011;42408;53.238;5.686;2024-02-14T03:33:55;9.67;;;6.67;;
56511;SDS011;42408;53.238;5.686;2024-02-14T03:36:21;10.93;;;7.30;;
56511;SDS011;42408;53.238;5.686;2024-02-14T03:38:49;12.18;;;7.05;;
56511;SDS011;42408;53.238;5.686;2024-02-14T03:41:15;16.00;;;7.18;;
56511;SDS011;42408;53.238;5.686;2024-02-14T03:43:40;16.37;;;7.33;;
56511;SDS011;42408;53.238;5.686;2024-02-14T03:46:06;11.07;;;6.33;;
56511;SDS011;42408;53.238;5.686;2024-02-14T03:48:32;13.60;;;6.43;;
56511;SDS011;42408;53.238;5.686;2024-02-14T03:50:57;10.80;;;5.97;;
56511;SDS011;42408;53.238;5.686;2024-02-14T03:53:23;13.50;;;6.87;;
56511;SDS011;42408;53.238;5.686;2024-02-14T03:55:49;12.07;;;6.20;;
56511;SDS011;42408;53.238;5.686;2024-02-14T03:58:15;14.48;;;7.18;;
56511;SDS011;42408;53.238;5.686;2024-02-14T04:00:47;13.38;;;6.50;;
56511;SDS011;42408;53.238;5.686;2024-02-14T04:03:17;10.70;;;6.20;;
56511;SDS011;42408;53.238;5.686;2024-02-14T04:05:43;15.82;;;6.70;;
56511;SDS011;42408;53.238;5.686;2024-02-14T04:08:10;13.13;;;6.13;;
56511;SDS011;42408;53.238;5.686;2024-02-14T04:10:36;14.38;;;6.40;;
56511;SDS011;42408;53.238;5.686;2024-02-14T04:13:05;12.93;;;6.57;;
56511;SDS011;42408;53.238;5.686;2024-02-14T04:15:32;17.33;;;6.75;;
56511;SDS011;42408;53.238;5.686;2024-02-14T04:17:57;21.00;;;7.50;;
56511;SDS011;42408;53.238;5.686;2024-02-14T04:20:25;12.70;;;6.30;;
56511;SDS011;42408;53.238;5.686;2024-02-14T04:22:50;16.80;;;7.37;;
56511;SDS011;42408;53.238;5.686;2024-02-14T04:25:16;13.60;;;7.13;;
56511;SDS011;42408;53.238;5.686;2024-02-14T04:27:42;18.27;;;7.80;;
56511;SDS011;42408;53.238;5.686;2024-02-14T04:30:07;17.50;;;6.80;;
56511;SDS011;42408;53.238;5.686;2024-02-14T04:32:33;16.85;;;7.00;;
56511;SDS011;42408;53.238;5.686;2024-02-14T04:34:59;20.50;;;7.40;;
56511;SDS011;42408;53.238;5.686;2024-02-14T04:37:24;22.03;;;7.50;;
56511;SDS011;42408;53.238;5.686;2024-02-14T04:39:50;19.47;;;7.77;;
56511;SDS011;42408;53.238;5.686;2024-02-14T04:42:16;24.50;;;9.17;;
56511;SDS011;42408;53.238;5.686;2024-02-14T04:44:41;17.70;;;7.77;;
56511;SDS011;42408;53.238;5.686;2024-02-14T04:47:07;20.17;;;7.90;;
56511;SDS011;42408;53.238;5.686;2024-02-14T04:49:34;24.50;;;9.07;;
56511;SDS011;42408;53.238;5.686;2024-02-14T04:52:00;28.70;;;8.90;;
56511;SDS011;42408;53.238;5.686;2024-02-14T04:54:26;26.70;;;7.87;;
56511;SDS011;42408;53.238;5.686;2024-02-14T04:56:53;23.02;;;7.53;;
56511;SDS011;42408;53.238;5.686;2024-02-14T04:59:19;23.27;;;7.00;;
56511;SDS011;42408;53.238;5.686;2024-02-14T05:01:44;15.70;;;4.90;;
56511;SDS011;42408;53.238;5.686;2024-02-14T05:04:11;20.65;;;5.85;;
56511;SDS011;42408;53.238;5.686;2024-02-14T05:06:38;17.23;;;5.47;;
56511;SDS011;42408;53.238;5.686;2024-02-14T05:09:04;28.70;;;7.30;;
56511;SDS011;42408;53.238;5.686;2024-02-14T05:11:30;20.92;;;7.13;;
56511;SDS011;42408;53.238;5.686;2024-02-14T05:13:56;31.23;;;8.40;;
56511;SDS011;42408;53.238;5.686;2024-02-14T05:16:21;31.77;;;7.80;;
56511;SDS011;42408;53.238;5.686;2024-02-14T05:18:48;30.88;;;7.97;;
56511;SDS011;42408;53.238;5.686;2024-02-14T05:21:14;30.40;;;7.93;;
56511;SDS011;42408;53.238;5.686;2024-02-14T05:23:39;28.00;;;8.67;;
56511;SDS011;42408;53.238;5.686;2024-02-14T05:26:05;38.17;;;9.03;;
56511;SDS011;42408;53.238;5.686;2024-02-14T05:28:31;36.00;;;9.38;;
56511;SDS011;42408;53.238;5.686;2024-02-14T05:30:57;37.57;;;9.80;;
56511;SDS011;42408;53.238;5.686;2024-02-14T05:35:49;30.25;;;8.60;;
56511;SDS011;42408;53.238;5.686;2024-02-14T05:38:15;36.27;;;9.00;;
56511;SDS011;42408;53.238;5.686;2024-02-14T05:40:42;40.00;;;9.82;;
56511;SDS011;42408;53.238;5.686;2024-02-14T05:43:09;50.92;;;10.27;;
56511;SDS011;42408;53.238;5.686;2024-02-14T05:45:35;33.65;;;9.25;;
56511;SDS011;42408;53.238;5.686;2024-02-14T05:48:01;38.87;;;10.40;;
56511;SDS011;42408;53.238;5.686;2024-02-14T05:50:27;42.73;;;10.37;;
56511;SDS011;42408;53.238;5.686;2024-02-14T05:52:53;39.45;;;10.60;;
56511;SDS011;42408;53.238;5.686;2024-02-14T05:55:18;31.23;;;9.63;;
56511;SDS011;42408;53.238;5.686;2024-02-14T05:57:44;25.47;;;7.87;;
56511;SDS011;42408;53.238;5.686;2024-02-14T06:00:10;29.17;;;10.23;;
56511;SDS011;42408;53.238;5.686;2024-02-14T06:02:37;31.70;;;8.40;;
56511;SDS011;42408;53.238;5.686;2024-02-14T06:05:05;25.55;;;7.68;;
56511;SDS011;42408;53.238;5.686;2024-02-14T06:07:35;38.35;;;11.07;;
56511;SDS011;42408;53.238;5.686;2024-02-14T06:10:01;37.20;;;10.85;;
56511;SDS011;42408;53.238;5.686;2024-02-14T06:12:27;41.80;;;9.93;;
56511;SDS011;42408;53.238;5.686;2024-02-14T06:14:54;46.38;;;11.30;;
56511;SDS011;42408;53.238;5.686;2024-02-14T06:17:20;39.23;;;9.83;;
56511;SDS011;42408;53.238;5.686;2024-02-14T06:19:46;31.20;;;8.83;;
56511;SDS011;42408;53.238;5.686;2024-02-14T06:22:11;38.10;;;9.57;;
56511;SDS011;42408;53.238;5.686;2024-02-14T06:24:37;35.57;;;8.73;;
56511;SDS011;42408;53.238;5.686;2024-02-14T06:27:03;29.93;;;8.43;;
56511;SDS011;42408;53.238;5.686;2024-02-14T06:29:28;42.93;;;9.33;;
56511;SDS011;42408;53.238;5.686;2024-02-14T06:31:54;35.50;;;9.00;;
56511;SDS011;42408;53.238;5.686;2024-02-14T06:34:20;35.10;;;9.70;;
56511;SDS011;42408;53.238;5.686;2024-02-14T06:36:48;49.13;;;10.17;;
56511;SDS011;42408;53.238;5.686;2024-02-14T06:39:14;36.22;;;10.63;;
56511;SDS011;42408;53.238;5.686;2024-02-14T06:41:39;36.03;;;10.70;;
56511;SDS011;42408;53.238;5.686;2024-02-14T06:44:05;33.43;;;9.23;;
56511;SDS011;42408;53.238;5.686;2024-02-14T06:46:31;37.93;;;9.73;;
56511;SDS011;42408;53.238;5.686;2024-02-14T06:48:57;43.00;;;10.10;;
56511;SDS011;42408;53.238;5.686;2024-02-14T06:51:22;42.47;;;10.20;;
56511;SDS011;42408;53.238;5.686;2024-02-14T06:53:49;36.92;;;9.30;;
56511;SDS011;42408;53.238;5.686;2024-02-14T06:56:15;33.55;;;10.05;;
56511;SDS011;42408;53.238;5.686;2024-02-14T06:58:41;48.67;;;12.27;;
56511;SDS011;42408;53.238;5.686;2024-02-14T07:01:07;43.40;;;10.40;;
56511;SDS011;42408;53.238;5.686;2024-02-14T07:03:33;43.70;;;10.40;;
56511;SDS011;42408;53.238;5.686;2024-02-14T07:05:58;41.43;;;10.20;;
56511;SDS011;42408;53.238;5.686;2024-02-14T07:08:24;37.93;;;10.13;;
56511;SDS011;42408;53.238;5.686;2024-02-14T07:10:53;43.03;;;11.13;;
56511;SDS011;42408;53.238;5.686;2024-02-14T07:13:19;41.83;;;10.77;;
56511;SDS011;42408;53.238;5.686;2024-02-14T07:15:45;40.33;;;9.37;;
56511;SDS011;42408;53.238;5.686;2024-02-14T07:18:10;41.87;;;9.83;;
56511;SDS011;42408;53.238;5.686;2024-02-14T07:20:36;41.63;;;10.00;;
56511;SDS011;42408;53.238;5.686;2024-02-14T07:23:01;41.00;;;10.10;;
56511;SDS011;42408;53.238;5.686;2024-02-14T07:25:28;45.45;;;10.32;;
56511;SDS011;42408;53.238;5.686;2024-02-14T07:27:53;43.13;;;10.50;;
56511;SDS011;42408;53.238;5.686;2024-02-14T07:30:19;31.57;;;10.50;;
56511;SDS011;42408;53.238;5.686;2024-02-14T07:32:45;42.93;;;10.30;;
56511;SDS011;42408;53.238;5.686;2024-02-14T07:35:10;41.70;;;10.90;;
56511;SDS011;42408;53.238;5.686;2024-02-14T07:37:38;46.58;;;11.10;;
56511;SDS011;42408;53.238;5.686;2024-02-14T07:40:04;42.15;;;10.82;;
56511;SDS011;42408;53.238;5.686;2024-02-14T07:42:30;40.42;;;10.85;;
56511;SDS011;42408;53.238;5.686;2024-02-14T07:44:56;46.70;;;11.25;;
56511;SDS011;42408;53.238;5.686;2024-02-14T07:47:22;34.87;;;9.13;;
56511;SDS011;42408;53.238;5.686;2024-02-14T07:49:48;35.77;;;10.23;;
56511;SDS011;42408;53.238;5.686;2024-02-14T07:52:13;42.90;;;10.90;;
56511;SDS011;42408;53.238;5.686;2024-02-14T07:54:39;46.27;;;11.63;;
56511;SDS011;42408;53.238;5.686;2024-02-14T07:57:04;42.73;;;11.63;;
56511;SDS011;42408;53.238;5.686;2024-02-14T07:59:30;45.60;;;11.70;;
56511;SDS011;42408;53.238;5.686;2024-02-14T08:01:56;44.47;;;12.13;;
56511;SDS011;42408;53.238;5.686;2024-02-14T08:04:22;41.80;;;11.80;;
56511;SDS011;42408;53.238;5.686;2024-02-14T08:06:48;37.07;;;12.53;;
56511;SDS011;42408;53.238;5.686;2024-02-14T08:09:16;38.28;;;11.95;;
56511;SDS011;42408;53.238;5.686;2024-02-14T08:11:42;36.33;;;11.83;;
56511;SDS011;42408;53.238;5.686;2024-02-14T08:14:07;29.47;;;11.20;;
56511;SDS011;42408;53.238;5.686;2024-02-14T08:16:33;36.30;;;11.47;;
56511;SDS011;42408;53.238;5.686;2024-02-14T08:18:59;40.13;;;11.37;;
56511;SDS011;42408;53.238;5.686;2024-02-14T08:21:25;39.83;;;11.20;;
56511;SDS011;42408;53.238;5.686;2024-02-14T08:23:52;33.67;;;11.00;;
56511;SDS011;42408;53.238;5.686;2024-02-14T08:28:43;37.30;;;10.68;;
56511;SDS011;42408;53.238;5.686;2024-02-14T08:31:09;39.13;;;12.23;;
56511;SDS011;42408;53.238;5.686;2024-02-14T08:33:36;41.40;;;11.60;;
56511;SDS011;42408;53.238;5.686;2024-02-14T08:36:02;31.23;;;10.50;;
56511;SDS011;42408;53.238;5.686;2024-02-14T08:38:31;36.63;;;11.30;;
56511;SDS011;42408;53.238;5.686;2024-02-14T08:41:01;36.67;;;10.77;;
56511;SDS011;42408;53.238;5.686;2024-02-14T08:43:27;37.33;;;13.30;;
56511;SDS011;42408;53.238;5.686;2024-02-14T08:45:56;36.70;;;11.48;;
56511;SDS011;42408;53.238;5.686;2024-02-14T08:48:22;31.58;;;11.15;;
56511;SDS011;42408;53.238;5.686;2024-02-14T08:50:48;36.40;;;11.50;;
56511;SDS011;42408;53.238;5.686;2024-02-14T08:53:15;37.77;;;10.93;;
56511;SDS011;42408;53.238;5.686;2024-02-14T08:58:07;33.85;;;12.25;;
56511;SDS011;42408;53.238;5.686;2024-02-14T09:00:34;33.55;;;10.98;;
56511;SDS011;42408;53.238;5.686;2024-02-14T09:03:01;30.40;;;10.75;;
56511;SDS011;42408;53.238;5.686;2024-02-14T09:05:28;34.90;;;11.20;;
56511;SDS011;42408;53.238;5.686;2024-02-14T09:07:54;32.33;;;9.30;;
56511;SDS011;42408;53.238;5.686;2024-02-14T09:10:19;33.67;;;10.30;;
56511;SDS011;42408;53.238;5.686;2024-02-14T09:12:45;31.33;;;10.48;;
56511;SDS011;42408;53.238;5.686;2024-02-14T09:15:11;29.90;;;9.67;;
56511;SDS011;42408;53.238;5.686;2024-02-14T09:17:37;34.73;;;10.13;;
56511;SDS011;42408;53.238;5.686;2024-02-14T09:20:05;25.52;;;9.25;;
56511;SDS011;42408;53.238;5.686;2024-02-14T09:22:34;24.33;;;9.05;;
56511;SDS011;42408;53.238;5.686;2024-02-14T09:25:00;24.88;;;9.75;;
56511;SDS011;42408;53.238;5.686;2024-02-14T09:27:29;24.85;;;9.85;;
56511;SDS011;42408;53.238;5.686;2024-02-14T09:29:55;32.65;;;11.13;;
56511;SDS011;42408;53.238;5.686;2024-02-14T09:32:21;29.20;;;10.03;;
56511;SDS011;42408;53.238;5.686;2024-02-14T09:34:46;26.57;;;10.70;;
56511;SDS011;42408;53.238;5.686;2024-02-14T09:37:12;25.90;;;9.67;;
56511;SDS011;42408;53.238;5.686;2024-02-14T09:39:38;28.47;;;10.23;;
56511;SDS011;42408;53.238;5.686;2024-02-14T09:42:12;23.10;;;9.07;;
56511;SDS011;42408;53.238;5.686;2024-02-14T09:44:40;30.40;;;10.15;;
56511;SDS011;42408;53.238;5.686;2024-02-14T09:47:07;23.67;;;9.65;;
56511;SDS011;42408;53.238;5.686;2024-02-14T09:49:34;25.38;;;10.02;;
56511;SDS011;42408;53.238;5.686;2024-02-14T09:52:01;25.23;;;9.70;;
56511;SDS011;42408;53.238;5.686;2024-02-14T09:54:31;20.38;;;8.85;;
56511;SDS011;42408;53.238;5.686;2024-02-14T09:56:59;24.05;;;8.48;;
56511;SDS011;42408;53.238;5.686;2024-02-14T09:59:27;18.10;;;8.18;;
56511;SDS011;42408;53.238;5.686;2024-02-14T10:01:54;31.13;;;9.82;;
56511;SDS011;42408;53.238;5.686;2024-02-14T10:04:20;24.10;;;10.45;;
56511;SDS011;42408;53.238;5.686;2024-02-14T10:06:47;26.10;;;9.05;;
56511;SDS011;42408;53.238;5.686;2024-02-14T10:09:18;28.65;;;9.23;;
56511;SDS011;42408;53.238;5.686;2024-02-14T10:11:47;34.15;;;9.60;;
56511;SDS011;42408;53.238;5.686;2024-02-14T10:14:13;20.77;;;8.97;;
56511;SDS011;42408;53.238;5.686;2024-02-14T10:16:38;27.87;;;8.47;;
56511;SDS011;42408;53.238;5.686;2024-02-14T10:19:04;25.77;;;9.03;;
56511;SDS011;42408;53.238;5.686;2024-02-14T10:21:32;24.45;;;8.18;;
56511;SDS011;42408;53.238;5.686;2024-02-14T10:24:01;24.00;;;8.30;;
56511;SDS011;42408;53.238;5.686;2024-02-14T10:26:28;20.23;;;7.45;;
56511;SDS011;42408;53.238;5.686;2024-02-14T10:28:56;19.25;;;8.45;;
56511;SDS011;42408;53.238;5.686;2024-02-14T10:31:25;23.92;;;7.70;;
56511;SDS011;42408;53.238;5.686;2024-02-14T10:33:52;22.45;;;7.78;;
56511;SDS011;42408;53.238;5.686;2024-02-14T10:36:20;22.27;;;7.30;;
56511;SDS011;42408;53.238;5.686;2024-02-14T10:38:46;19.35;;;8.48;;
56511;SDS011;42408;53.238;5.686;2024-02-14T10:41:15;24.05;;;8.85;;
56511;SDS011;42408;53.238;5.686;2024-02-14T10:43:41;22.80;;;7.63;;
56511;SDS011;42408;53.238;5.686;2024-02-14T10:46:09;22.67;;;7.43;;
56511;SDS011;42408;53.238;5.686;2024-02-14T10:48:44;18.25;;;7.82;;
56511;SDS011;42408;53.238;5.686;2024-02-14T10:51:11;28.27;;;7.30;;
56511;SDS011;42408;53.238;5.686;2024-02-14T10:56:07;18.15;;;6.10;;
56511;SDS011;42408;53.238;5.686;2024-02-14T10:58:33;18.83;;;7.43;;
56511;SDS011;42408;53.238;5.686;2024-02-14T11:01:00;18.38;;;6.53;;
56511;SDS011;42408;53.238;5.686;2024-02-14T11:03:26;17.15;;;5.78;;
56511;SDS011;42408;53.238;5.686;2024-02-14T11:05:55;17.40;;;6.07;;
56511;SDS011;42408;53.238;5.686;2024-02-14T11:08:28;14.05;;;6.60;;
56511;SDS011;42408;53.238;5.686;2024-02-14T11:10:56;17.83;;;6.32;;
56511;SDS011;42408;53.238;5.686;2024-02-14T11:13:29;16.15;;;6.32;;
56511;SDS011;42408;53.238;5.686;2024-02-14T11:15:56;16.30;;;6.30;;
56511;SDS011;42408;53.238;5.686;2024-02-14T11:18:25;16.77;;;6.50;;
56511;SDS011;42408;53.238;5.686;2024-02-14T11:20:51;19.38;;;6.57;;
56511;SDS011;42408;53.238;5.686;2024-02-14T11:23:21;20.73;;;6.57;;
56511;SDS011;42408;53.238;5.686;2024-02-14T11:25:47;16.67;;;5.50;;
56511;SDS011;42408;53.238;5.686;2024-02-14T11:28:13;20.00;;;6.40;;
56511;SDS011;42408;53.238;5.686;2024-02-14T11:30:40;19.58;;;7.13;;
56511;SDS011;42408;53.238;5.686;2024-02-14T11:35:49;21.17;;;7.07;;
56511;SDS011;42408;53.238;5.686;2024-02-14T11:38:18;16.10;;;5.55;;
56511;SDS011;42408;53.238;5.686;2024-02-14T11:40:44;16.27;;;5.95;;
56511;SDS011;42408;53.238;5.686;2024-02-14T11:43:13;20.13;;;6.50;;
56511;SDS011;42408;53.238;5.686;2024-02-14T11:45:42;17.63;;;6.30;;
56511;SDS011;42408;53.238;5.686;2024-02-14T11:48:18;19.73;;;6.13;;
56511;SDS011;42408;53.238;5.686;2024-02-14T11:50:48;17.23;;;6.03;;
56511;SDS011;42408;53.238;5.686;2024-02-14T11:53:14;16.73;;;6.10;;
56511;SDS011;42408;53.238;5.686;2024-02-14T11:55:46;17.33;;;6.28;;
56511;SDS011;42408;53.238;5.686;2024-02-14T11:58:13;15.17;;;6.40;;
56511;SDS011;42408;53.238;5.686;2024-02-14T12:03:10;17.88;;;5.97;;
56511;SDS011;42408;53.238;5.686;2024-02-14T12:05:48;13.43;;;5.80;;
56511;SDS011;42408;53.238;5.686;2024-02-14T12:08:17;15.68;;;5.97;;
56511;SDS011;42408;53.238;5.686;2024-02-14T12:10:44;14.13;;;6.05;;
56511;SDS011;42408;53.238;5.686;2024-02-14T12:13:15;15.95;;;6.35;;
56511;SDS011;42408;53.238;5.686;2024-02-14T12:15:44;18.00;;;6.93;;
56511;SDS011;42408;53.238;5.686;2024-02-14T12:18:12;15.60;;;6.70;;
56511;SDS011;42408;53.238;5.686;2024-02-14T12:20:40;13.40;;;6.25;;
56511;SDS011;42408;53.238;5.686;2024-02-14T12:23:07;12.40;;;6.60;;
56511;SDS011;42408;53.238;5.686;2024-02-14T12:25:39;12.57;;;6.97;;
56511;SDS011;42408;53.238;5.686;2024-02-14T12:28:05;14.40;;;7.53;;
56511;SDS011;42408;53.238;5.686;2024-02-14T12:30:44;15.13;;;8.30;;
56511;SDS011;42408;53.238;5.686;2024-02-14T12:33:11;17.50;;;8.00;;
56511;SDS011;42408;53.238;5.686;2024-02-14T12:35:47;18.13;;;7.88;;
56511;SDS011;42408;53.238;5.686;2024-02-14T12:38:13;15.68;;;7.53;;
56511;SDS011;42408;53.238;5.686;2024-02-14T12:40:40;17.58;;;8.73;;
56511;SDS011;42408;53.238;5.686;2024-02-14T12:43:09;19.52;;;8.48;;
56511;SDS011;42408;53.238;5.686;2024-02-14T12:45:39;15.23;;;8.57;;
56511;SDS011;42408;53.238;5.686;2024-02-14T12:48:06;14.13;;;7.85;;
56511;SDS011;42408;53.238;5.686;2024-02-14T12:50:33;15.00;;;6.90;;
56511;SDS011;42408;53.238;5.686;2024-02-14T12:53:02;17.20;;;8.43;;
56511;SDS011;42408;53.238;5.686;2024-02-14T12:55:29;15.57;;;7.65;;
56511;SDS011;42408;53.238;5.686;2024-02-14T12:57:55;18.20;;;7.20;;
56511;SDS011;42408;53.238;5.686;2024-02-14T13:00:22;16.80;;;7.80;;
56511;SDS011;42408;53.238;5.686;2024-02-14T13:02:48;12.68;;;7.22;;
56511;SDS011;42408;53.238;5.686;2024-02-14T13:05:14;17.90;;;8.27;;
56511;SDS011;42408;53.238;5.686;2024-02-14T13:07:41;16.77;;;7.38;;
56511;SDS011;42408;53.238;5.686;2024-02-14T13:10:07;16.38;;;7.80;;
56511;SDS011;42408;53.238;5.686;2024-02-14T13:12:35;23.20;;;8.38;;
56511;SDS011;42408;53.238;5.686;2024-02-14T13:15:02;21.38;;;8.25;;
56511;SDS011;42408;53.238;5.686;2024-02-14T13:17:29;18.35;;;8.10;;
56511;SDS011;42408;53.238;5.686;2024-02-14T13:19:54;19.63;;;7.67;;
56511;SDS011;42408;53.238;5.686;2024-02-14T13:22:20;15.90;;;8.03;;
56511;SDS011;42408;53.238;5.686;2024-02-14T13:24:45;23.37;;;8.20;;
56511;SDS011;42408;53.238;5.686;2024-02-14T13:27:11;19.77;;;7.43;;
56511;SDS011;42408;53.238;5.686;2024-02-14T13:29:37;18.37;;;8.63;;
56511;SDS011;42408;53.238;5.686;2024-02-14T13:32:03;19.70;;;8.50;;
56511;SDS011;42408;53.238;5.686;2024-02-14T13:34:32;16.88;;;7.97;;
56511;SDS011;42408;53.238;5.686;2024-02-14T13:36:58;17.25;;;7.22;;
56511;SDS011;42408;53.238;5.686;2024-02-14T13:39:24;14.25;;;8.10;;
56511;SDS011;42408;53.238;5.686;2024-02-14T13:41:50;11.77;;;7.30;;
56511;SDS011;42408;53.238;5.686;2024-02-14T13:46:43;13.38;;;6.47;;
56511;SDS011;42408;53.238;5.686;2024-02-14T13:49:15;10.77;;;6.10;;
56511;SDS011;42408;53.238;5.686;2024-02-14T13:51:46;10.95;;;6.53;;
56511;SDS011;42408;53.238;5.686;2024-02-14T13:54:18;13.75;;;6.15;;
56511;SDS011;42408;53.238;5.686;2024-02-14T13:56:44;11.90;;;6.70;;
56511;SDS011;42408;53.238;5.686;2024-02-14T13:59:10;13.23;;;5.60;;
56511;SDS011;42408;53.238;5.686;2024-02-14T14:01:36;11.75;;;6.18;;
56511;SDS011;42408;53.238;5.686;2024-02-14T14:04:02;10.47;;;5.97;;
56511;SDS011;42408;53.238;5.686;2024-02-14T14:06:29;12.65;;;6.35;;
56511;SDS011;42408;53.238;5.686;2024-02-14T14:08:55;10.77;;;6.05;;
56511;SDS011;42408;53.238;5.686;2024-02-14T14:11:20;9.23;;;6.13;;
56511;SDS011;42408;53.238;5.686;2024-02-14T14:13:46;11.60;;;6.18;;
56511;SDS011;42408;53.238;5.686;2024-02-14T14:16:12;11.97;;;6.40;;
56511;SDS011;42408;53.238;5.686;2024-02-14T14:18:38;9.73;;;5.97;;
56511;SDS011;42408;53.238;5.686;2024-02-14T14:21:04;12.20;;;6.67;;
56511;SDS011;42408;53.238;5.686;2024-02-14T14:23:30;16.40;;;7.30;;
56511;SDS011;42408;53.238;5.686;2024-02-14T14:25:57;11.88;;;6.25;;
56511;SDS011;42408;53.238;5.686;2024-02-14T14:28:23;11.55;;;6.18;;
56511;SDS011;42408;53.238;5.686;2024-02-14T14:30:55;13.13;;;6.57;;
56511;SDS011;42408;53.238;5.686;2024-02-14T14:33:21;9.93;;;6.43;;
56511;SDS011;42408;53.238;5.686;2024-02-14T14:35:47;12.40;;;6.68;;
56511;SDS011;42408;53.238;5.686;2024-02-14T14:38:15;12.65;;;6.57;;
56511;SDS011;42408;53.238;5.686;2024-02-14T14:40:41;15.50;;;8.07;;
56511;SDS011;42408;53.238;5.686;2024-02-14T14:43:07;16.97;;;7.90;;
56511;SDS011;42408;53.238;5.686;2024-02-14T14:45:33;16.90;;;7.77;;
56511;SDS011;42408;53.238;5.686;2024-02-14T14:47:58;18.20;;;9.07;;
56511;SDS011;42408;53.238;5.686;2024-02-14T14:50:24;20.50;;;8.70;;